Johns Pass, Florida
Current Conditions -  °F | °C
As of 10:53 PM on Sunday 25 Jan 2015 (Local Time) from KPIE Reporting Station
Clear Clear  
Wind Chill: 57°   Ceiling: Unl
Heat Index: 57°   Visibility: 10mi
Dew Point: 54°   Wind: 7mph
Humidity: 89%   Direction: 180°S
Pressure: 29.96"   Gusts: NA
Location:  27.8164°N, 82.7802°W
Report Text: KPIE 260353Z 18006KT 10SM CLR 14/12 A2996 RMK AO2 SLP145 T01390122
Loading
Personal Weather Stations






























Interactive Weather Map New forecast layout! Learn more

10-Day Weather Forecast

Advertisements
Track Severe Weather on mobile